createdAt,value
2017-09-23T00:01:25.946Z,10.60
2017-09-23T00:03:54.940Z,10.60
2017-09-23T00:06:23.710Z,10.40
2017-09-23T00:08:52.614Z,10.50
2017-09-23T00:11:21.411Z,10.50
2017-09-23T00:13:50.558Z,10.50
2017-09-23T00:16:20.208Z,10.50
2017-09-23T00:18:49.095Z,10.50
2017-09-23T00:21:17.702Z,10.40
2017-09-23T00:23:46.880Z,10.40
2017-09-23T00:26:15.784Z,10.50
2017-09-23T00:28:45.372Z,10.40
2017-09-23T00:31:15.039Z,10.30
2017-09-23T00:33:44.078Z,10.30
2017-09-23T00:36:13.747Z,10.20
2017-09-23T00:38:42.880Z,10.10
2017-09-23T00:41:11.355Z,10.00
2017-09-23T00:43:39.736Z,10.00
2017-09-23T00:46:08.117Z,9.90
2017-09-23T00:48:36.551Z,9.90
2017-09-23T00:51:06.596Z,9.90
2017-09-23T00:53:35.506Z,9.90
2017-09-23T00:56:05.892Z,9.90
2017-09-23T00:58:35.025Z,9.90
2017-09-23T01:01:03.820Z,10.00
2017-09-23T01:03:32.602Z,9.90
2017-09-23T01:06:01.007Z,9.90
2017-09-23T01:08:29.393Z,9.90
2017-09-23T01:10:57.976Z,9.80
2017-09-23T01:13:26.359Z,9.80
2017-09-23T01:15:55.508Z,9.60
2017-09-23T01:18:23.961Z,9.60
2017-09-23T01:20:52.353Z,9.50
2017-09-23T01:23:20.751Z,9.50
2017-09-23T01:25:49.186Z,9.40
2017-09-23T01:28:18.346Z,9.60
2017-09-23T01:30:46.734Z,9.60
2017-09-23T01:33:15.154Z,9.70
2017-09-23T01:35:43.567Z,9.80
2017-09-23T01:38:11.944Z,9.90
2017-09-23T01:40:40.367Z,10.00
2017-09-23T01:43:09.507Z,9.90
2017-09-23T01:45:37.895Z,9.80
2017-09-23T01:48:06.296Z,9.80
2017-09-23T01:50:34.675Z,9.80
2017-09-23T01:53:03.137Z,9.80
2017-09-23T01:55:31.559Z,9.90
2017-09-23T01:58:00.717Z,10.10
2017-09-23T02:00:29.106Z,10.10
2017-09-23T02:02:57.526Z,10.10
2017-09-23T02:05:26.690Z,9.90
2017-09-23T02:07:55.072Z,9.90
2017-09-23T02:10:23.478Z,10.00
2017-09-23T02:12:52.637Z,10.10
2017-09-23T02:15:21.034Z,10.10
2017-09-23T02:17:50.207Z,10.20
2017-09-23T02:20:18.681Z,10.20
2017-09-23T02:22:47.060Z,10.20
2017-09-23T02:25:15.475Z,10.20
2017-09-23T02:27:44.617Z,10.10
2017-09-23T02:30:13.009Z,10.10
2017-09-23T02:32:41.449Z,10.10
2017-09-23T02:35:10.589Z,9.90
2017-09-23T02:37:38.958Z,9.90
2017-09-23T02:40:07.606Z,10.00
2017-09-23T02:42:36.752Z,9.90
2017-09-23T02:45:05.127Z,9.90
2017-09-23T02:47:33.531Z,9.80
2017-09-23T02:50:01.914Z,9.80
2017-09-23T02:52:30.315Z,9.90
2017-09-23T02:54:59.550Z,9.80
2017-09-23T02:57:27.926Z,9.70
2017-09-23T02:59:56.299Z,9.70
2017-09-23T03:02:24.903Z,9.70
2017-09-23T03:04:53.948Z,9.80
2017-09-23T03:07:23.099Z,9.90
2017-09-23T03:09:51.504Z,9.90
2017-09-23T03:12:19.878Z,10.00
2017-09-23T03:14:48.254Z,10.00
2017-09-23T03:17:16.679Z,9.90
2017-09-23T03:19:45.052Z,9.90
2017-09-23T03:22:13.427Z,10.00
2017-09-23T03:24:41.842Z,10.00
2017-09-23T03:27:10.233Z,9.90
2017-09-23T03:29:38.643Z,9.60
2017-09-23T03:32:07.897Z,9.70
2017-09-23T03:34:36.271Z,9.70
2017-09-23T03:37:05.610Z,9.90
2017-09-23T03:39:34.694Z,9.90
2017-09-23T03:42:03.089Z,9.90
2017-09-23T03:44:31.466Z,10.00
2017-09-23T03:46:59.910Z,10.00
2017-09-23T03:49:28.306Z,9.90
2017-09-23T03:51:56.705Z,9.80
2017-09-23T03:54:25.962Z,9.70
2017-09-23T03:56:54.329Z,9.70
2017-09-23T03:59:22.745Z,9.70
2017-09-23T04:01:51.166Z,9.70
2017-09-23T04:04:19.538Z,9.70
2017-09-23T04:06:47.915Z,9.70
2017-09-23T04:09:17.099Z,9.60
2017-09-23T04:11:46.242Z,9.50
2017-09-23T04:14:14.626Z,9.50
2017-09-23T04:16:43.030Z,9.40
2017-09-23T04:19:11.424Z,9.40
2017-09-23T04:21:40.948Z,9.50
2017-09-23T04:24:10.120Z,9.50
2017-09-23T04:26:38.548Z,9.50
2017-09-23T04:29:06.923Z,9.40
2017-09-23T04:31:35.334Z,9.50
2017-09-23T04:34:03.711Z,9.50
2017-09-23T04:36:32.090Z,9.50
2017-09-23T04:39:00.486Z,9.50
2017-09-23T04:41:28.870Z,9.40
2017-09-23T04:43:57.243Z,9.40
2017-09-23T04:46:25.701Z,9.50
2017-09-23T04:48:54.080Z,9.40
2017-09-23T04:51:22.456Z,9.40
2017-09-23T04:53:50.910Z,9.40
2017-09-23T04:56:19.295Z,9.40
2017-09-23T04:58:47.724Z,9.60
2017-09-23T05:01:16.150Z,9.60
2017-09-23T05:03:44.530Z,9.70
2017-09-23T05:06:12.994Z,9.70
2017-09-23T05:08:41.413Z,9.70
2017-09-23T05:11:09.799Z,9.70
2017-09-23T05:13:38.186Z,9.70
2017-09-23T05:16:06.599Z,9.80
2017-09-23T05:18:35.748Z,9.80
2017-09-23T05:21:04.130Z,9.80
2017-09-23T05:23:32.534Z,9.70
2017-09-23T05:26:00.934Z,9.60
2017-09-23T05:28:30.103Z,9.90
2017-09-23T05:30:58.499Z,9.90
2017-09-23T05:33:26.874Z,9.80
2017-09-23T05:35:55.253Z,9.90
2017-09-23T05:38:23.710Z,9.90
2017-09-23T05:40:52.083Z,9.80
2017-09-23T05:43:20.459Z,9.80
2017-09-23T05:45:49.093Z,10.00
2017-09-23T05:48:17.472Z,10.20
2017-09-23T05:50:45.868Z,10.50
2017-09-23T05:53:14.310Z,10.60
2017-09-23T05:55:43.459Z,10.80
2017-09-23T05:58:11.890Z,10.80
2017-09-23T06:00:41.092Z,11.30
2017-09-23T06:03:10.239Z,11.70
2017-09-23T06:05:38.631Z,11.70
2017-09-23T06:08:07.039Z,12.20
2017-09-23T06:10:36.191Z,12.80
2017-09-23T06:13:04.566Z,12.80
2017-09-23T06:15:32.980Z,13.30
2017-09-23T06:18:01.412Z,13.10
2017-09-23T06:20:29.917Z,12.90
2017-09-23T06:22:58.351Z,12.50
2017-09-23T06:25:26.781Z,12.10
2017-09-23T06:27:55.203Z,12.60
2017-09-23T06:30:24.395Z,13.50
2017-09-23T06:32:53.541Z,14.40
2017-09-23T06:35:21.949Z,14.40
2017-09-23T06:37:50.411Z,14.40
2017-09-23T06:40:18.834Z,14.00
2017-09-23T06:42:48.090Z,13.70
2017-09-23T06:45:17.389Z,14.20
2017-09-23T06:47:46.144Z,14.20
2017-09-23T06:50:14.556Z,14.50
2017-09-23T06:52:43.011Z,14.20
2017-09-23T06:55:11.411Z,14.30
2017-09-23T06:57:39.813Z,14.30
2017-09-23T07:00:08.219Z,14.30
2017-09-23T07:02:37.392Z,14.10
2017-09-23T07:05:05.793Z,14.10
2017-09-23T07:07:35.178Z,14.00
2017-09-23T07:10:04.115Z,13.90
2017-09-23T07:12:32.568Z,14.00
2017-09-23T07:15:01.747Z,14.40
2017-09-23T07:17:30.133Z,14.30
2017-09-23T07:19:59.295Z,14.60
2017-09-23T07:22:27.868Z,14.60
2017-09-23T07:24:56.266Z,14.80
2017-09-23T07:27:24.659Z,14.60
2017-09-23T07:29:53.069Z,14.50
2017-09-23T07:32:21.450Z,14.30
2017-09-23T07:34:49.855Z,14.50
2017-09-23T07:37:18.272Z,14.80
2017-09-23T07:39:46.662Z,15.10
2017-09-23T07:42:15.101Z,15.70
2017-09-23T07:44:43.528Z,15.80
2017-09-23T07:47:12.712Z,15.60
2017-09-23T07:49:41.503Z,15.60
2017-09-23T07:52:09.929Z,15.70
2017-09-23T07:54:38.339Z,15.60
2017-09-23T07:57:06.724Z,16.00
2017-09-23T07:59:35.137Z,16.60
2017-09-23T08:02:04.287Z,17.10
2017-09-23T08:04:32.667Z,17.00
2017-09-23T08:07:01.119Z,17.30
2017-09-23T08:09:29.494Z,17.30
2017-09-23T08:11:57.891Z,17.40
2017-09-23T08:14:26.584Z,17.90
2017-09-23T08:17:02.172Z,18.50
2017-09-23T08:19:32.020Z,18.60
2017-09-23T08:22:01.127Z,18.70
2017-09-23T08:24:30.477Z,18.70
2017-09-23T08:27:00.031Z,18.90
2017-09-23T08:29:28.424Z,18.90
2017-09-23T08:32:04.198Z,18.80
2017-09-23T08:34:32.629Z,19.30
2017-09-23T08:37:01.088Z,19.60
2017-09-23T08:39:29.527Z,19.50
2017-09-23T08:41:57.918Z,19.00
2017-09-23T08:44:26.317Z,18.80
2017-09-23T08:46:55.499Z,20.20
2017-09-23T08:49:23.956Z,20.20
2017-09-23T08:51:52.342Z,20.50
2017-09-23T08:54:21.815Z,19.80
2017-09-23T08:56:51.795Z,19.60
2017-09-23T08:59:21.253Z,19.60
2017-09-23T09:01:49.865Z,19.00
2017-09-23T09:04:18.262Z,19.70
2017-09-23T09:06:47.406Z,20.20
2017-09-23T09:09:15.815Z,20.20
2017-09-23T09:11:44.202Z,20.80
2017-09-23T09:14:13.367Z,21.80
2017-09-23T09:16:41.818Z,21.70
2017-09-23T09:19:10.201Z,21.70
2017-09-23T09:21:39.540Z,21.70
2017-09-23T09:24:08.007Z,21.70
2017-09-23T09:26:36.411Z,21.90
2017-09-23T09:29:04.812Z,22.10
2017-09-23T09:31:34.140Z,23.70
2017-09-23T09:34:02.552Z,23.60
2017-09-23T09:36:30.944Z,23.50
2017-09-23T09:38:59.441Z,23.60
2017-09-23T09:41:28.661Z,25.20
2017-09-23T09:43:57.650Z,25.10
2017-09-23T09:46:26.068Z,26.20
2017-09-23T09:48:55.575Z,26.80
2017-09-23T09:51:26.472Z,28.50
2017-09-23T09:53:55.742Z,28.10
2017-09-23T09:56:24.131Z,28.00
2017-09-23T09:58:54.234Z,28.50
2017-09-23T10:01:22.678Z,28.50
2017-09-23T10:03:51.066Z,28.00
2017-09-23T10:06:19.547Z,28.20
2017-09-23T10:08:47.962Z,28.40
2017-09-23T10:11:16.371Z,28.30
2017-09-23T10:13:46.565Z,28.20
2017-09-23T10:16:15.257Z,27.80
2017-09-23T10:18:44.404Z,26.80
2017-09-23T10:21:12.795Z,26.80
2017-09-23T10:23:42.363Z,26.60
2017-09-23T10:26:11.793Z,26.80
2017-09-23T10:28:41.003Z,27.50
2017-09-23T10:31:09.426Z,27.50
2017-09-23T10:33:38.583Z,26.60
2017-09-23T10:36:06.994Z,26.60
2017-09-23T10:38:36.182Z,26.10
2017-09-23T10:41:04.573Z,26.10
2017-09-23T10:43:33.741Z,25.90
2017-09-23T10:46:02.203Z,25.80
2017-09-23T10:48:31.101Z,26.10
2017-09-23T10:50:59.499Z,26.60
2017-09-23T10:53:27.950Z,27.40
2017-09-23T10:55:56.543Z,28.10
2017-09-23T10:58:24.964Z,29.00
2017-09-23T11:00:54.508Z,28.90
2017-09-23T11:03:23.600Z,28.90
2017-09-23T11:05:52.071Z,29.00
2017-09-23T11:08:20.502Z,28.80
2017-09-23T11:10:48.883Z,29.20
2017-09-23T11:13:17.279Z,29.60
2017-09-23T11:15:46.467Z,29.00
2017-09-23T11:18:15.619Z,29.00
2017-09-23T11:20:44.600Z,28.90
2017-09-23T11:23:13.007Z,29.10
2017-09-23T11:25:42.248Z,29.40
2017-09-23T11:28:11.420Z,29.20
2017-09-23T11:30:39.846Z,29.20
2017-09-23T11:33:08.318Z,29.70
2017-09-23T11:35:36.837Z,29.50
2017-09-23T11:38:05.297Z,29.60
2017-09-23T11:40:33.937Z,29.50
2017-09-23T11:43:03.082Z,29.70
2017-09-23T11:45:31.493Z,29.70
2017-09-23T11:47:59.888Z,30.10
2017-09-23T11:50:28.539Z,30.10
2017-09-23T11:52:57.254Z,30.40
2017-09-23T11:55:25.639Z,30.40
2017-09-23T11:57:54.953Z,29.80
2017-09-23T12:00:24.145Z,28.90
2017-09-23T12:02:53.313Z,28.90
2017-09-23T12:05:21.687Z,28.90
2017-09-23T12:07:50.164Z,28.60
2017-09-23T12:10:18.555Z,28.10
2017-09-23T12:12:46.939Z,28.00
2017-09-23T12:15:15.722Z,27.90
2017-09-23T12:17:44.906Z,28.90
2017-09-23T12:20:13.309Z,28.90
2017-09-23T12:22:41.798Z,29.40
2017-09-23T12:25:10.972Z,29.60
2017-09-23T12:27:39.825Z,29.50
2017-09-23T12:30:09.497Z,29.60
2017-09-23T12:32:38.645Z,29.40
2017-09-23T12:35:07.022Z,29.40
2017-09-23T12:37:35.462Z,29.50
2017-09-23T12:40:04.632Z,29.90
2017-09-23T12:42:33.048Z,29.90
2017-09-23T12:45:01.472Z,29.90
2017-09-23T12:47:29.867Z,30.20
2017-09-23T12:49:58.258Z,29.70
2017-09-23T12:52:27.661Z,29.20
2017-09-23T12:54:57.090Z,28.60
2017-09-23T12:57:25.479Z,28.50
2017-09-23T12:59:53.905Z,28.00
2017-09-23T13:02:22.287Z,27.80
2017-09-23T13:04:50.691Z,27.30
2017-09-23T13:07:19.869Z,26.10
2017-09-23T13:09:48.242Z,26.10
2017-09-23T13:12:17.394Z,23.90
2017-09-23T13:14:45.810Z,23.80
2017-09-23T13:17:14.199Z,23.60
2017-09-23T13:19:42.583Z,23.50
2017-09-23T13:22:11.885Z,23.30
2017-09-23T13:24:40.254Z,23.30
2017-09-23T13:27:08.639Z,23.20
2017-09-23T13:29:37.851Z,23.40
2017-09-23T13:32:07.003Z,23.50
2017-09-23T13:34:35.395Z,23.40
2017-09-23T13:37:03.839Z,24.00
2017-09-23T13:39:32.220Z,24.00
2017-09-23T13:42:00.605Z,24.10
2017-09-23T13:44:29.034Z,23.50
2017-09-23T13:46:58.195Z,23.00
2017-09-23T13:49:26.589Z,23.00
2017-09-23T13:51:55.349Z,22.70
2017-09-23T13:54:23.742Z,22.80
2017-09-23T13:56:52.145Z,23.10
2017-09-23T13:59:20.581Z,23.30
2017-09-23T14:01:48.963Z,23.40
2017-09-23T14:04:17.341Z,23.80
2017-09-23T14:06:46.028Z,24.20
2017-09-23T14:09:14.403Z,24.70
2017-09-23T14:11:42.778Z,24.80
2017-09-23T14:14:11.235Z,24.70
2017-09-23T14:16:40.619Z,24.30
2017-09-23T14:19:09.766Z,23.60
2017-09-23T14:21:38.193Z,23.60
2017-09-23T14:24:07.334Z,23.50
2017-09-23T14:26:35.724Z,23.50
2017-09-23T14:29:04.174Z,23.50
2017-09-23T14:31:32.574Z,23.40
2017-09-23T14:34:00.958Z,23.20
2017-09-23T14:36:29.401Z,22.90
2017-09-23T14:38:57.782Z,22.70
2017-09-23T14:41:26.195Z,22.50
2017-09-23T14:43:54.616Z,22.30
2017-09-23T14:46:23.769Z,21.80
2017-09-23T14:48:52.151Z,21.80
2017-09-23T14:51:20.614Z,21.60
2017-09-23T14:53:49.002Z,21.50
2017-09-23T14:56:17.387Z,21.60
2017-09-23T14:58:45.800Z,21.50
2017-09-23T15:01:14.190Z,21.20
2017-09-23T15:03:43.350Z,21.10
2017-09-23T15:06:13.258Z,21.00
2017-09-23T15:08:41.713Z,21.10
2017-09-23T15:11:10.119Z,21.00
2017-09-23T15:13:38.551Z,21.20
2017-09-23T15:16:06.979Z,21.30
2017-09-23T15:18:35.362Z,21.30
2017-09-23T15:21:03.784Z,21.30
2017-09-23T15:23:32.931Z,21.10
2017-09-23T15:26:02.368Z,21.10
2017-09-23T15:28:30.801Z,21.10
2017-09-23T15:30:59.190Z,20.90
2017-09-23T15:33:27.610Z,20.50
2017-09-23T15:35:56.969Z,20.10
2017-09-23T15:38:25.359Z,20.00
2017-09-23T15:40:53.763Z,19.90
2017-09-23T15:43:22.952Z,19.80
2017-09-23T15:45:51.358Z,19.80
2017-09-23T15:48:21.455Z,19.60
2017-09-23T15:50:49.904Z,19.60
2017-09-23T15:53:18.314Z,19.30
2017-09-23T15:55:46.702Z,19.20
2017-09-23T15:58:15.912Z,19.00
2017-09-23T16:00:45.073Z,19.00
2017-09-23T16:03:13.488Z,18.90
2017-09-23T16:05:42.795Z,18.80
2017-09-23T16:08:11.206Z,18.80
2017-09-23T16:10:39.587Z,18.80
2017-09-23T16:13:08.003Z,18.70
2017-09-23T16:15:36.387Z,18.70
2017-09-23T16:18:04.829Z,18.60
2017-09-23T16:20:33.278Z,18.50
2017-09-23T16:23:01.658Z,18.50
2017-09-23T16:25:30.182Z,18.40
2017-09-23T16:27:58.607Z,18.40
2017-09-23T16:30:27.772Z,18.20
2017-09-23T16:32:56.160Z,18.20
2017-09-23T16:35:25.424Z,18.10
2017-09-23T16:37:53.870Z,18.00
2017-09-23T16:40:22.361Z,17.90
2017-09-23T16:42:50.773Z,17.90
2017-09-23T16:45:19.200Z,17.90
2017-09-23T16:47:48.635Z,17.70
2017-09-23T16:50:17.064Z,17.70
2017-09-23T16:52:46.223Z,17.50
2017-09-23T16:55:14.663Z,17.50
2017-09-23T16:57:43.057Z,17.40
2017-09-23T17:00:11.527Z,17.30
2017-09-23T17:02:39.906Z,17.10
2017-09-23T17:05:08.298Z,17.00
2017-09-23T17:07:36.722Z,16.90
2017-09-23T17:10:05.126Z,16.80
2017-09-23T17:12:34.583Z,16.70
2017-09-23T17:15:02.967Z,16.70
2017-09-23T17:17:31.446Z,16.60
2017-09-23T17:19:59.868Z,16.50
2017-09-23T17:22:29.022Z,16.30
2017-09-23T17:24:57.475Z,16.30
2017-09-23T17:27:25.854Z,16.30
2017-09-23T17:29:54.281Z,16.20
2017-09-23T17:32:22.706Z,16.10
2017-09-23T17:34:51.097Z,16.10
2017-09-23T17:37:19.933Z,16.10
2017-09-23T17:39:48.334Z,16.10
2017-09-23T17:42:17.479Z,16.10
2017-09-23T17:44:45.889Z,16.10
2017-09-23T17:47:15.039Z,16.10
2017-09-23T17:49:46.283Z,16.10
2017-09-23T17:52:15.165Z,16.00
2017-09-23T17:54:43.597Z,16.00
2017-09-23T17:57:12.010Z,15.90
2017-09-23T17:59:40.645Z,15.80
2017-09-23T18:02:09.050Z,15.90
2017-09-23T18:04:39.223Z,15.80
2017-09-23T18:07:08.077Z,15.80
2017-09-23T18:09:36.570Z,15.90
2017-09-23T18:12:04.990Z,15.80
2017-09-23T18:14:33.558Z,15.80
2017-09-23T18:17:01.975Z,15.80
2017-09-23T18:19:30.950Z,15.80
2017-09-23T18:21:59.331Z,15.80
2017-09-23T18:24:27.789Z,15.80
2017-09-23T18:26:56.270Z,15.80
2017-09-23T18:29:24.667Z,15.80
2017-09-23T18:31:53.340Z,15.70
2017-09-23T18:34:21.800Z,15.60
2017-09-23T18:36:50.314Z,15.50
2017-09-23T18:39:18.723Z,15.40
2017-09-23T18:41:47.887Z,15.30
2017-09-23T18:44:16.358Z,15.20
2017-09-23T18:46:45.438Z,15.30
2017-09-23T18:49:14.021Z,15.30
2017-09-23T18:51:43.319Z,15.20
2017-09-23T18:54:13.286Z,15.20
2017-09-23T18:56:42.137Z,15.20
2017-09-23T18:59:10.539Z,15.20
2017-09-23T19:01:38.964Z,15.20
2017-09-23T19:04:07.375Z,15.00
2017-09-23T19:06:35.825Z,15.10
2017-09-23T19:09:04.979Z,15.00
2017-09-23T19:11:34.163Z,14.80
2017-09-23T19:14:03.671Z,14.80
2017-09-23T19:16:33.078Z,14.80
2017-09-23T19:19:02.076Z,14.80
2017-09-23T19:21:31.660Z,14.80
2017-09-23T19:24:00.104Z,14.80
2017-09-23T19:26:28.956Z,14.90
2017-09-23T19:28:58.995Z,14.90
2017-09-23T19:31:28.148Z,14.90
2017-09-23T19:33:57.071Z,14.90
2017-09-23T19:36:26.232Z,14.60
2017-09-23T19:38:54.627Z,14.60
2017-09-23T19:41:23.182Z,14.50
2017-09-23T19:43:51.578Z,14.20
2017-09-23T19:46:21.014Z,14.20
2017-09-23T19:48:50.203Z,14.30
2017-09-23T19:51:19.521Z,14.30
2017-09-23T19:53:48.758Z,14.40
2017-09-23T19:56:17.232Z,14.40
2017-09-23T19:58:45.830Z,14.40
2017-09-23T20:01:15.910Z,14.40
2017-09-23T20:03:44.406Z,14.40
2017-09-23T20:06:12.901Z,14.30
2017-09-23T20:08:41.294Z,14.30
2017-09-23T20:11:09.764Z,14.30
2017-09-23T20:13:38.320Z,14.30
2017-09-23T20:16:06.826Z,14.10
2017-09-23T20:18:35.283Z,14.20
2017-09-23T20:21:03.979Z,14.20
2017-09-23T20:23:32.371Z,14.20
2017-09-23T20:26:00.871Z,14.20
2017-09-23T20:28:29.590Z,14.20
2017-09-23T20:30:58.845Z,14.20
2017-09-23T20:33:27.422Z,14.10
2017-09-23T20:35:55.925Z,14.10
2017-09-23T20:38:24.796Z,14.00
2017-09-23T20:40:53.246Z,13.90
2017-09-23T20:43:21.671Z,13.80
2017-09-23T20:45:50.070Z,13.80
2017-09-23T20:48:18.482Z,13.70
2017-09-23T20:50:46.908Z,13.60
2017-09-23T20:53:15.302Z,13.40
2017-09-23T20:55:44.104Z,13.50
2017-09-23T20:58:13.319Z,13.40
2017-09-23T21:00:41.708Z,13.40
2017-09-23T21:03:10.087Z,13.40
2017-09-23T21:05:38.575Z,13.30
2017-09-23T21:08:07.023Z,13.30
2017-09-23T21:10:35.413Z,13.30
2017-09-23T21:13:04.649Z,13.20
2017-09-23T21:15:33.086Z,13.10
2017-09-23T21:18:01.625Z,13.10
2017-09-23T21:20:30.087Z,13.00
2017-09-23T21:22:59.905Z,12.90
2017-09-23T21:25:28.700Z,13.00
2017-09-23T21:27:57.186Z,12.90
2017-09-23T21:30:25.673Z,12.90
2017-09-23T21:32:54.067Z,12.90
2017-09-23T21:35:22.490Z,12.90
2017-09-23T21:37:51.877Z,12.90
2017-09-23T21:40:20.343Z,12.80
2017-09-23T21:42:49.575Z,12.60
2017-09-23T21:45:18.434Z,12.60
2017-09-23T21:47:47.582Z,12.40
2017-09-23T21:50:15.991Z,12.40
2017-09-23T21:52:46.602Z,12.50
2017-09-23T21:55:15.097Z,12.50
2017-09-23T21:57:43.556Z,12.50
2017-09-23T22:00:12.085Z,12.50
2017-09-23T22:02:41.241Z,12.40
2017-09-23T22:05:09.687Z,12.40
2017-09-23T22:07:38.081Z,12.30
2017-09-23T22:10:06.519Z,12.30
2017-09-23T22:12:35.712Z,12.40
2017-09-23T22:15:04.880Z,12.40
2017-09-23T22:17:33.267Z,12.40
2017-09-23T22:20:01.872Z,12.40
2017-09-23T22:22:31.043Z,12.40
2017-09-23T22:24:59.446Z,12.40
2017-09-23T22:27:28.634Z,12.30
2017-09-23T22:29:57.101Z,12.30
2017-09-23T22:32:27.011Z,12.10
2017-09-23T22:34:56.971Z,12.00
2017-09-23T22:37:25.358Z,12.00
2017-09-23T22:39:53.740Z,11.90
2017-09-23T22:42:22.391Z,11.90
2017-09-23T22:44:51.644Z,11.90
2017-09-23T22:47:20.023Z,11.90
2017-09-23T22:49:48.450Z,11.80
2017-09-23T22:52:17.595Z,11.70
2017-09-23T22:54:45.972Z,11.70
2017-09-23T22:57:14.383Z,11.60
2017-09-23T22:59:42.762Z,11.60
2017-09-23T23:02:11.140Z,11.60
2017-09-23T23:04:39.562Z,11.60
2017-09-23T23:07:07.939Z,11.60
2017-09-23T23:09:36.331Z,11.60
2017-09-23T23:12:04.751Z,11.70
2017-09-23T23:14:33.128Z,11.70
2017-09-23T23:17:01.508Z,11.70
2017-09-23T23:19:29.925Z,11.70
2017-09-23T23:21:58.315Z,11.70
2017-09-23T23:24:26.695Z,11.80
2017-09-23T23:26:55.137Z,11.80
2017-09-23T23:29:23.519Z,11.80
2017-09-23T23:31:51.895Z,11.70
2017-09-23T23:34:20.302Z,11.70
2017-09-23T23:36:48.690Z,11.50
2017-09-23T23:39:17.071Z,11.40
2017-09-23T23:41:45.513Z,11.30
2017-09-23T23:44:14.680Z,11.40
2017-09-23T23:46:43.062Z,11.40
2017-09-23T23:49:11.825Z,11.40
2017-09-23T23:51:40.222Z,11.40
2017-09-23T23:54:08.607Z,11.50
2017-09-23T23:56:37.038Z,11.40
2017-09-23T23:59:05.585Z,11.40
